createdAt,value
2024-01-25T00:01:32.417Z,48.06
2024-01-25T00:03:58.995Z,48.43
2024-01-25T00:06:26.599Z,48.00
2024-01-25T00:08:53.039Z,48.96
2024-01-25T00:11:19.386Z,50.92
2024-01-25T00:13:45.735Z,48.06
2024-01-25T00:16:12.119Z,47.56
2024-01-25T00:18:38.564Z,47.42
2024-01-25T00:21:04.974Z,48.21
2024-01-25T00:23:31.326Z,47.90
2024-01-25T00:26:00.050Z,47.67
2024-01-25T00:28:26.811Z,47.48
2024-01-25T00:30:53.231Z,47.05
2024-01-25T00:33:19.796Z,48.10
2024-01-25T00:35:46.219Z,48.33
2024-01-25T00:38:12.677Z,47.61
2024-01-25T00:40:39.632Z,51.10
2024-01-25T00:43:06.166Z,51.55
2024-01-25T00:45:32.736Z,51.60
2024-01-25T00:47:59.460Z,49.29
2024-01-25T00:50:27.061Z,49.06
2024-01-25T00:52:53.493Z,48.49
2024-01-25T00:55:20.148Z,47.77
2024-01-25T00:57:46.718Z,48.75
2024-01-25T01:00:13.419Z,48.13
2024-01-25T01:02:45.915Z,48.26
2024-01-25T01:05:12.682Z,47.89
2024-01-25T01:07:42.439Z,48.38
2024-01-25T01:10:09.777Z,49.83
2024-01-25T01:12:36.562Z,47.46
2024-01-25T01:15:02.976Z,48.77
2024-01-25T01:17:29.401Z,50.66
2024-01-25T01:19:55.923Z,48.71
2024-01-25T01:22:22.457Z,48.41
2024-01-25T01:24:48.989Z,48.42
2024-01-25T01:27:15.345Z,47.51
2024-01-25T01:29:42.294Z,50.02
2024-01-25T01:32:09.103Z,48.48
2024-01-25T01:34:35.581Z,48.08
2024-01-25T01:37:02.186Z,49.00
2024-01-25T01:39:28.665Z,47.45
2024-01-25T01:41:55.088Z,49.59
2024-01-25T01:44:21.746Z,50.72
2024-01-25T01:46:48.098Z,50.46
2024-01-25T01:49:14.940Z,51.57
2024-01-25T01:51:41.608Z,52.15
2024-01-25T01:54:08.148Z,50.04
2024-01-25T01:56:34.520Z,48.99
2024-01-25T01:59:01.394Z,47.53
2024-01-25T02:01:28.112Z,48.55
2024-01-25T02:03:55.004Z,48.56
2024-01-25T02:06:21.614Z,49.07
2024-01-25T02:08:48.611Z,47.16
2024-01-25T02:11:14.966Z,47.41
2024-01-25T02:13:41.320Z,49.13
2024-01-25T02:16:08.068Z,51.77
2024-01-25T02:18:34.655Z,52.38
2024-01-25T02:21:01.057Z,52.14
2024-01-25T02:23:27.879Z,49.89
2024-01-25T02:25:54.294Z,48.87
2024-01-25T02:28:21.119Z,49.53
2024-01-25T02:30:47.767Z,50.79
2024-01-25T02:33:14.192Z,50.58
2024-01-25T02:35:40.564Z,51.53
2024-01-25T02:38:06.923Z,52.39
2024-01-25T02:40:33.282Z,51.02
2024-01-25T02:42:59.759Z,50.18
2024-01-25T02:45:26.141Z,50.39
2024-01-25T02:47:52.605Z,49.01
2024-01-25T02:50:19.177Z,50.33
2024-01-25T02:52:45.556Z,49.98
2024-01-25T02:55:12.024Z,49.12
2024-01-25T02:57:38.530Z,48.04
2024-01-25T03:00:05.615Z,47.91
2024-01-25T03:02:32.500Z,48.98
2024-01-25T03:04:58.932Z,49.95
2024-01-25T03:07:25.432Z,47.45
2024-01-25T03:09:51.888Z,48.59
2024-01-25T03:12:18.626Z,49.00
2024-01-25T03:14:44.987Z,47.34
2024-01-25T03:17:13.368Z,46.78
2024-01-25T03:19:39.821Z,48.52
2024-01-25T03:22:06.217Z,49.32
2024-01-25T03:24:32.984Z,49.85
2024-01-25T03:26:59.362Z,51.90
2024-01-25T03:29:25.683Z,50.86
2024-01-25T03:31:52.097Z,48.59
2024-01-25T03:34:18.750Z,48.58
2024-01-25T03:36:45.300Z,48.32
2024-01-25T03:39:11.699Z,50.10
2024-01-25T03:41:38.123Z,50.37
2024-01-25T03:44:04.631Z,52.82
2024-01-25T03:46:31.038Z,51.57
2024-01-25T03:48:57.479Z,48.76
2024-01-25T03:51:25.169Z,48.40
2024-01-25T03:53:53.707Z,47.86
2024-01-25T03:56:20.156Z,49.45
2024-01-25T03:58:47.555Z,50.78
2024-01-25T04:01:13.973Z,52.27
2024-01-25T04:03:40.449Z,52.21
2024-01-25T04:06:07.022Z,52.69
2024-01-25T04:08:33.394Z,50.93
2024-01-25T04:10:59.744Z,50.58
2024-01-25T04:13:26.238Z,49.82
2024-01-25T04:15:52.757Z,47.83
2024-01-25T04:18:19.224Z,47.42
2024-01-25T04:20:45.713Z,46.64
2024-01-25T04:23:12.148Z,46.87
2024-01-25T04:25:38.554Z,46.12
2024-01-25T04:28:05.012Z,48.50
2024-01-25T04:30:32.891Z,51.85
2024-01-25T04:32:59.715Z,52.06
2024-01-25T04:35:26.298Z,51.17
2024-01-25T04:37:52.671Z,49.70
2024-01-25T04:40:20.332Z,49.14
2024-01-25T04:42:46.855Z,50.40
2024-01-25T04:45:13.201Z,50.60
2024-01-25T04:47:40.618Z,49.93
2024-01-25T04:50:07.326Z,50.87
2024-01-25T04:52:33.742Z,48.18
2024-01-25T04:55:00.175Z,47.38
2024-01-25T04:57:26.616Z,46.21
2024-01-25T04:59:53.031Z,46.48
2024-01-25T05:02:19.962Z,46.36
2024-01-25T05:04:46.778Z,46.95
2024-01-25T05:07:13.585Z,48.10
2024-01-25T05:09:40.069Z,48.10
2024-01-25T05:12:06.720Z,50.96
2024-01-25T05:14:33.072Z,51.52
2024-01-25T05:16:59.405Z,52.95
2024-01-25T05:19:26.648Z,50.93
2024-01-25T05:21:53.126Z,52.32
2024-01-25T05:24:19.483Z,52.06
2024-01-25T05:26:45.881Z,50.95
2024-01-25T05:29:12.285Z,52.27
2024-01-25T05:31:38.691Z,52.15
2024-01-25T05:34:05.321Z,52.31
2024-01-25T05:36:31.790Z,52.87
2024-01-25T05:38:58.299Z,52.56
2024-01-25T05:41:24.632Z,49.69
2024-01-25T05:43:50.969Z,48.78
2024-01-25T05:46:17.338Z,48.25
2024-01-25T05:48:43.823Z,49.01
2024-01-25T05:51:10.342Z,49.36
2024-01-25T05:53:36.697Z,50.21
2024-01-25T05:56:05.202Z,50.89
2024-01-25T05:58:31.809Z,49.42
2024-01-25T06:00:58.694Z,49.13
2024-01-25T06:03:25.146Z,49.21
2024-01-25T06:05:51.896Z,48.67
2024-01-25T06:08:18.629Z,48.01
2024-01-25T06:10:45.205Z,50.53
2024-01-25T06:13:11.828Z,51.26
2024-01-25T06:15:39.288Z,50.00
2024-01-25T06:18:05.846Z,50.75
2024-01-25T06:20:32.508Z,52.19
2024-01-25T06:22:58.967Z,51.61
2024-01-25T06:25:25.527Z,49.03
2024-01-25T06:27:52.227Z,49.04
2024-01-25T06:30:20.909Z,48.59
2024-01-25T06:32:47.343Z,48.40
2024-01-25T06:35:13.879Z,48.42
2024-01-25T06:37:43.298Z,48.55
2024-01-25T06:40:16.087Z,49.15
2024-01-25T06:42:43.794Z,50.88
2024-01-25T06:48:37.662Z,51.62
2024-01-25T06:51:17.958Z,50.77
2024-01-25T06:53:44.446Z,49.40
2024-01-25T06:56:11.063Z,48.27
2024-01-25T06:58:37.522Z,47.37
2024-01-25T07:01:05.964Z,47.63
2024-01-25T07:03:33.237Z,46.42
2024-01-25T07:06:00.255Z,48.06
2024-01-25T07:08:27.058Z,47.89
2024-01-25T07:10:53.471Z,45.96
2024-01-25T07:13:22.388Z,47.92
2024-01-25T07:15:49.161Z,50.60
2024-01-25T07:18:15.957Z,51.71
2024-01-25T07:20:42.818Z,52.50
2024-01-25T07:23:09.658Z,52.07
2024-01-25T07:25:36.194Z,50.45
2024-01-25T07:28:03.350Z,49.20
2024-01-25T07:30:29.918Z,50.37
2024-01-25T07:32:56.386Z,50.30
2024-01-25T07:35:24.850Z,48.64
2024-01-25T07:37:58.352Z,48.26
2024-01-25T07:40:24.977Z,48.73
2024-01-25T07:42:51.526Z,51.01
2024-01-25T07:45:18.705Z,48.95
2024-01-25T07:47:45.504Z,47.44
2024-01-25T07:57:23.012Z,48.56
2024-01-25T07:59:49.441Z,51.02
2024-01-25T08:02:21.087Z,53.65
2024-01-25T08:04:48.333Z,54.47
2024-01-25T08:07:15.016Z,55.16
2024-01-25T08:09:55.154Z,54.10
2024-01-25T08:12:21.563Z,53.05
2024-01-25T08:14:48.026Z,49.56
2024-01-25T08:17:14.799Z,48.96
2024-01-25T08:19:41.348Z,48.41
2024-01-25T08:22:07.895Z,49.23
2024-01-25T08:24:34.390Z,48.71
2024-01-25T08:27:00.876Z,49.86
2024-01-25T08:29:27.312Z,49.08
2024-01-25T08:31:53.765Z,48.06
2024-01-25T08:34:20.590Z,45.70
2024-01-25T08:36:47.128Z,45.47
2024-01-25T08:39:13.555Z,44.97
2024-01-25T08:41:41.937Z,44.27
2024-01-25T08:44:08.643Z,44.29
2024-01-25T08:46:35.163Z,44.45
2024-01-25T08:49:02.614Z,44.73
2024-01-25T08:51:29.261Z,44.17
2024-01-25T08:53:55.693Z,44.30
2024-01-25T08:56:22.144Z,44.30
2024-01-25T08:58:49.661Z,44.12
2024-01-25T09:01:16.291Z,43.78
2024-01-25T09:03:42.962Z,43.96
2024-01-25T09:06:09.646Z,43.78
2024-01-25T09:08:39.144Z,43.48
2024-01-25T09:11:05.949Z,43.86
2024-01-25T09:13:33.786Z,44.99
2024-01-25T09:16:11.664Z,43.84
2024-01-25T09:18:38.200Z,43.20
2024-01-25T09:21:04.786Z,43.11
2024-01-25T09:23:31.285Z,43.41
2024-01-25T09:25:57.806Z,43.19
2024-01-25T09:28:26.147Z,43.30
2024-01-25T09:30:53.242Z,43.33
2024-01-25T09:33:20.101Z,43.32
2024-01-25T09:35:48.994Z,43.49
2024-01-25T09:38:16.087Z,43.69
2024-01-25T09:40:42.731Z,43.97
2024-01-25T09:43:09.396Z,44.31
2024-01-25T09:45:36.125Z,44.27
2024-01-25T09:48:05.662Z,44.11
2024-01-25T09:50:35.026Z,43.79
2024-01-25T09:53:01.755Z,43.45
2024-01-25T09:55:28.396Z,43.55
2024-01-25T09:57:56.716Z,43.68
2024-01-25T10:00:23.307Z,43.78
2024-01-25T10:02:50.807Z,43.61
2024-01-25T10:05:20.504Z,44.16
2024-01-25T10:07:47.451Z,45.52
2024-01-25T10:10:14.305Z,45.64
2024-01-25T10:12:44.064Z,45.32
2024-01-25T10:15:10.931Z,44.26
2024-01-25T10:20:12.249Z,43.83
2024-01-25T10:22:39.994Z,43.76
2024-01-25T10:25:12.980Z,43.55
2024-01-25T10:27:39.571Z,43.39
2024-01-25T10:30:07.549Z,43.56
2024-01-25T10:32:34.323Z,43.68
2024-01-25T10:35:00.922Z,44.28
2024-01-25T10:37:27.621Z,48.09
2024-01-25T10:39:55.277Z,48.30
2024-01-25T10:42:22.092Z,49.71
2024-01-25T10:44:48.894Z,49.86
2024-01-25T10:47:15.960Z,48.96
2024-01-25T10:49:42.440Z,48.73
2024-01-25T10:52:09.052Z,48.75
2024-01-25T10:54:35.461Z,49.02
2024-01-25T10:57:02.179Z,48.40
2024-01-25T10:59:28.788Z,49.74
2024-01-25T11:01:55.470Z,47.96
2024-01-25T11:04:22.252Z,47.48
2024-01-25T11:06:48.928Z,47.14
2024-01-25T11:09:17.341Z,46.75
2024-01-25T11:11:45.006Z,47.43
2024-01-25T11:14:15.033Z,46.59
2024-01-25T11:16:45.882Z,46.72
2024-01-25T11:19:18.857Z,47.52
2024-01-25T11:21:46.181Z,46.40
2024-01-25T11:24:13.111Z,46.26
2024-01-25T11:26:39.474Z,47.03
2024-01-25T11:29:05.863Z,49.27
2024-01-25T11:31:32.578Z,49.42
2024-01-25T11:34:00.114Z,48.09
2024-01-25T11:36:26.802Z,47.00
2024-01-25T11:38:53.282Z,47.14
2024-01-25T11:41:19.854Z,46.99
2024-01-25T11:43:46.252Z,46.93
2024-01-25T11:46:13.818Z,46.81
2024-01-25T11:48:41.973Z,46.90
2024-01-25T11:51:10.240Z,46.73
2024-01-25T11:53:36.619Z,46.77
2024-01-25T11:56:03.009Z,46.23
2024-01-25T11:58:33.000Z,46.22
2024-01-25T12:01:01.144Z,45.57
2024-01-25T12:03:27.584Z,46.50
2024-01-25T12:05:54.128Z,46.19
2024-01-25T12:08:20.718Z,46.11
2024-01-25T12:10:47.229Z,46.92
2024-01-25T12:13:13.638Z,47.88
2024-01-25T12:15:42.135Z,50.15
2024-01-25T12:18:09.677Z,49.77
2024-01-25T12:20:36.756Z,47.10
2024-01-25T12:23:03.378Z,47.49
2024-01-25T12:25:29.783Z,49.08
2024-01-25T12:27:56.248Z,47.60
2024-01-25T12:30:23.545Z,47.26
2024-01-25T12:32:50.977Z,45.69
2024-01-25T12:35:18.449Z,46.48
2024-01-25T12:37:44.940Z,47.25
2024-01-25T12:40:11.966Z,46.58
2024-01-25T12:42:38.441Z,45.65
2024-01-25T12:45:05.120Z,45.55
2024-01-25T12:47:32.009Z,45.00
2024-01-25T12:49:58.843Z,45.48
2024-01-25T12:52:25.547Z,45.27
2024-01-25T12:54:52.108Z,45.06
2024-01-25T12:57:18.622Z,45.49
2024-01-25T12:59:46.115Z,45.55
2024-01-25T13:02:12.626Z,44.92
2024-01-25T13:04:39.464Z,44.85
2024-01-25T13:07:07.008Z,44.90
2024-01-25T13:09:35.070Z,44.62
2024-01-25T13:12:02.058Z,44.39
2024-01-25T13:14:28.431Z,44.01
2024-01-25T13:16:54.780Z,45.28
2024-01-25T13:19:21.183Z,45.45
2024-01-25T13:21:47.590Z,45.30
2024-01-25T13:24:14.056Z,45.27
2024-01-25T13:26:40.440Z,45.01
2024-01-25T13:29:06.832Z,45.32
2024-01-25T13:31:33.372Z,45.04
2024-01-25T13:34:00.035Z,45.27
2024-01-25T13:36:26.495Z,44.63
2024-01-25T13:38:52.929Z,44.59
2024-01-25T13:41:19.475Z,43.53
2024-01-25T13:43:45.829Z,43.46
2024-01-25T13:46:12.176Z,43.60
2024-01-25T13:48:38.728Z,44.05
2024-01-25T13:51:05.239Z,44.11
2024-01-25T13:53:32.234Z,43.77
2024-01-25T13:55:58.710Z,44.27
2024-01-25T13:58:25.074Z,45.38
2024-01-25T14:00:51.490Z,45.25
2024-01-25T14:03:18.217Z,44.13
2024-01-25T14:05:44.710Z,43.71
2024-01-25T14:08:11.240Z,43.87
2024-01-25T14:10:38.083Z,44.25
2024-01-25T14:13:04.577Z,44.91
2024-01-25T14:15:31.048Z,45.09
2024-01-25T14:17:57.495Z,45.77
2024-01-25T14:20:24.083Z,46.34
2024-01-25T14:22:50.840Z,46.24
2024-01-25T14:25:17.665Z,46.90
2024-01-25T14:27:44.091Z,46.39
2024-01-25T14:30:10.839Z,46.67
2024-01-25T14:32:37.529Z,45.07
2024-01-25T14:35:04.839Z,46.42
2024-01-25T14:37:32.594Z,46.32
2024-01-25T14:40:09.063Z,45.57
2024-01-25T14:42:45.494Z,44.23
2024-01-25T14:45:11.913Z,43.72
2024-01-25T14:47:38.301Z,43.88
2024-01-25T14:50:04.918Z,44.89
2024-01-25T14:52:34.886Z,46.09
2024-01-25T14:55:02.177Z,45.24
2024-01-25T14:57:28.712Z,45.08
2024-01-25T14:59:55.090Z,46.14
2024-01-25T15:02:21.654Z,46.63
2024-01-25T15:04:48.087Z,46.14
2024-01-25T15:07:18.486Z,45.60
2024-01-25T15:09:44.910Z,46.02
2024-01-25T15:12:11.430Z,46.01
2024-01-25T15:14:37.824Z,44.69
2024-01-25T15:17:04.287Z,43.36
2024-01-25T15:19:30.758Z,43.89
2024-01-25T15:21:57.321Z,43.76
2024-01-25T15:24:23.755Z,43.64
2024-01-25T15:26:50.124Z,44.19
2024-01-25T15:29:16.543Z,43.98
2024-01-25T15:31:42.926Z,44.62
2024-01-25T15:34:09.462Z,45.97
2024-01-25T15:36:36.935Z,45.95
2024-01-25T15:39:04.624Z,45.72
2024-01-25T15:41:31.286Z,46.52
2024-01-25T15:43:58.383Z,45.96
2024-01-25T15:46:24.770Z,46.05
2024-01-25T15:48:52.992Z,45.87
2024-01-25T15:51:19.482Z,44.11
2024-01-25T15:53:45.954Z,44.04
2024-01-25T15:56:12.308Z,43.90
2024-01-25T15:58:38.644Z,44.95
2024-01-25T16:01:05.211Z,45.85
2024-01-25T16:03:31.693Z,47.70
2024-01-25T16:05:58.206Z,46.74
2024-01-25T16:08:24.655Z,47.23
2024-01-25T16:10:51.016Z,46.65
2024-01-25T16:13:17.396Z,46.32
2024-01-25T16:15:43.784Z,46.29
2024-01-25T16:18:10.331Z,46.26
2024-01-25T16:20:36.724Z,47.34
2024-01-25T16:23:03.395Z,47.57
2024-01-25T16:25:31.470Z,47.80
2024-01-25T16:27:58.114Z,47.49
2024-01-25T16:30:24.671Z,45.96
2024-01-25T16:32:51.093Z,44.57
2024-01-25T16:35:17.496Z,45.12
2024-01-25T16:37:43.826Z,45.12
2024-01-25T16:40:10.357Z,45.34
2024-01-25T16:42:36.768Z,46.97
2024-01-25T16:45:03.176Z,49.40
2024-01-25T16:47:29.590Z,48.74
2024-01-25T16:49:56.197Z,48.99
2024-01-25T16:52:22.614Z,49.93
2024-01-25T16:54:49.095Z,49.24
2024-01-25T16:57:15.502Z,48.45
2024-01-25T16:59:41.845Z,47.69
2024-01-25T17:02:08.187Z,47.74
2024-01-25T17:04:34.707Z,47.94
2024-01-25T17:07:01.178Z,48.17
2024-01-25T17:09:27.912Z,47.17
2024-01-25T17:11:54.305Z,47.88
2024-01-25T17:14:20.644Z,48.13
2024-01-25T17:16:47.011Z,48.14
2024-01-25T17:19:13.523Z,47.53
2024-01-25T17:21:40.022Z,46.69
2024-01-25T17:24:07.704Z,46.45
2024-01-25T17:26:34.073Z,46.87
2024-01-25T17:29:01.095Z,46.99
2024-01-25T17:31:27.444Z,45.67
2024-01-25T17:33:54.044Z,46.71
2024-01-25T17:36:20.572Z,45.80
2024-01-25T17:38:46.989Z,46.54
2024-01-25T17:41:13.413Z,47.37
2024-01-25T17:43:40.016Z,48.45
2024-01-25T17:46:06.666Z,49.22
2024-01-25T17:48:34.286Z,50.08
2024-01-25T17:51:00.801Z,49.92
2024-01-25T17:53:27.166Z,49.14
2024-01-25T17:55:53.559Z,48.46
2024-01-25T17:58:19.921Z,48.57
2024-01-25T18:00:46.391Z,49.82
2024-01-25T18:03:12.874Z,49.85
2024-01-25T18:05:39.287Z,49.36
2024-01-25T18:08:05.818Z,50.24
2024-01-25T18:10:32.185Z,51.08
2024-01-25T18:12:58.820Z,50.01
2024-01-25T18:15:25.414Z,49.74
2024-01-25T18:17:51.817Z,50.16
2024-01-25T18:20:19.033Z,50.87
2024-01-25T18:22:45.504Z,49.87
2024-01-25T18:25:11.879Z,49.61
2024-01-25T18:27:38.317Z,50.31
2024-01-25T18:30:04.963Z,49.74
2024-01-25T18:32:31.390Z,49.01
2024-01-25T18:34:57.892Z,47.55
2024-01-25T18:37:24.391Z,47.46
2024-01-25T18:39:50.818Z,48.41
2024-01-25T18:42:17.210Z,47.63
2024-01-25T18:44:43.621Z,48.83
2024-01-25T18:47:11.342Z,48.32
2024-01-25T18:49:38.244Z,48.43
2024-01-25T18:52:04.932Z,48.85
2024-01-25T18:54:31.431Z,47.50
2024-01-25T18:56:57.920Z,46.21
2024-01-25T18:59:27.164Z,47.96
2024-01-25T19:01:54.822Z,47.63
2024-01-25T19:04:21.805Z,48.90
2024-01-25T19:06:55.229Z,48.01
2024-01-25T19:09:27.974Z,46.78
2024-01-25T19:11:54.590Z,46.85
2024-01-25T19:14:20.953Z,47.81
2024-01-25T19:16:50.700Z,49.47
2024-01-25T19:19:17.552Z,49.21
2024-01-25T19:21:44.275Z,48.56
2024-01-25T19:24:10.944Z,48.09
2024-01-25T19:26:37.583Z,48.90
2024-01-25T19:29:03.936Z,49.56
2024-01-25T19:31:30.899Z,49.55
2024-01-25T19:33:57.452Z,48.55
2024-01-25T19:36:24.076Z,48.73
2024-01-25T19:38:50.729Z,48.52
2024-01-25T19:41:17.069Z,47.07
2024-01-25T19:43:43.628Z,45.96
2024-01-25T19:46:10.045Z,46.95
2024-01-25T19:48:36.570Z,45.86
2024-01-25T19:51:03.097Z,45.33
2024-01-25T19:53:29.588Z,44.68
2024-01-25T19:55:56.001Z,44.21
2024-01-25T19:58:24.781Z,46.49
2024-01-25T20:00:51.233Z,47.33
2024-01-25T20:03:18.467Z,47.76
2024-01-25T20:05:46.348Z,48.75
2024-01-25T20:08:13.080Z,49.55
2024-01-25T20:10:39.517Z,49.88
2024-01-25T20:13:05.921Z,50.19
2024-01-25T20:15:32.300Z,49.03
2024-01-25T20:17:58.732Z,48.83
2024-01-25T20:20:34.119Z,48.75
2024-01-25T20:23:09.057Z,48.70
2024-01-25T20:25:35.398Z,49.97
2024-01-25T20:28:01.849Z,49.19
2024-01-25T20:30:29.846Z,49.40
2024-01-25T20:32:56.372Z,49.80
2024-01-25T20:35:22.960Z,50.52
2024-01-25T20:37:49.396Z,49.87
2024-01-25T20:40:15.811Z,50.04
2024-01-25T20:42:42.202Z,51.20
2024-01-25T20:45:08.798Z,51.04
2024-01-25T20:47:35.182Z,50.12
2024-01-25T20:50:01.984Z,50.97
2024-01-25T20:52:28.466Z,50.88
2024-01-25T20:54:54.969Z,51.64
2024-01-25T20:57:21.496Z,50.79
2024-01-25T20:59:47.841Z,51.99
2024-01-25T21:02:14.314Z,51.64
2024-01-25T21:04:41.810Z,51.31
2024-01-25T21:07:08.483Z,51.74
2024-01-25T21:09:35.057Z,51.73
2024-01-25T21:12:01.485Z,50.59
2024-01-25T21:14:27.942Z,50.03
2024-01-25T21:16:55.323Z,49.19
2024-01-25T21:19:21.779Z,49.01
2024-01-25T21:21:48.256Z,49.70
2024-01-25T21:24:14.666Z,50.61
2024-01-25T21:26:41.012Z,50.63
2024-01-25T21:29:07.776Z,50.75
2024-01-25T21:31:34.178Z,50.42
2024-01-25T21:34:05.118Z,49.34
2024-01-25T21:36:32.053Z,48.88
2024-01-25T21:38:58.445Z,50.66
2024-01-25T21:41:24.804Z,51.19
2024-01-25T21:43:51.229Z,51.28
2024-01-25T21:46:17.652Z,49.18
2024-01-25T21:48:44.100Z,48.57
2024-01-25T21:51:11.003Z,48.74
2024-01-25T21:53:40.193Z,49.82
2024-01-25T21:56:07.284Z,50.69
2024-01-25T21:58:34.413Z,49.36
2024-01-25T22:01:01.389Z,50.62
2024-01-25T22:03:28.365Z,51.04
2024-01-25T22:05:54.958Z,51.85
2024-01-25T22:08:21.540Z,52.51
2024-01-25T22:10:48.018Z,52.91
2024-01-25T22:13:16.429Z,51.74
2024-01-25T22:15:43.094Z,49.87
2024-01-25T22:18:09.554Z,49.56
2024-01-25T22:20:36.017Z,49.57
2024-01-25T22:23:04.136Z,49.03
2024-01-25T22:25:30.486Z,50.97
2024-01-25T22:28:00.564Z,51.42
2024-01-25T22:30:27.128Z,51.39
2024-01-25T22:32:53.492Z,50.35
2024-01-25T22:35:19.927Z,50.09
2024-01-25T22:37:46.422Z,51.08
2024-01-25T22:40:12.963Z,52.68
2024-01-25T22:42:39.346Z,53.43
2024-01-25T22:45:05.772Z,54.78
2024-01-25T22:47:32.134Z,53.18
2024-01-25T22:49:58.862Z,53.43
2024-01-25T22:52:25.194Z,54.81
2024-01-25T22:54:51.999Z,53.87
2024-01-25T22:57:18.561Z,54.94
2024-01-25T22:59:45.030Z,55.49
2024-01-25T23:02:11.404Z,54.53
2024-01-25T23:04:38.169Z,53.34
2024-01-25T23:07:04.763Z,54.66
2024-01-25T23:09:31.725Z,54.77
2024-01-25T23:11:58.740Z,54.09
2024-01-25T23:14:25.242Z,52.88
2024-01-25T23:16:51.804Z,53.75
2024-01-25T23:19:19.760Z,52.76
2024-01-25T23:21:47.168Z,51.66
2024-01-25T23:24:13.581Z,52.05
2024-01-25T23:26:39.972Z,51.61
2024-01-25T23:29:06.950Z,51.19
2024-01-25T23:31:33.517Z,50.11
2024-01-25T23:33:59.956Z,49.57
2024-01-25T23:36:26.812Z,50.34
2024-01-25T23:38:53.463Z,52.23
2024-01-25T23:41:19.908Z,53.14
2024-01-25T23:43:46.284Z,53.90
2024-01-25T23:46:13.025Z,58.23
2024-01-25T23:48:39.695Z,60.00
2024-01-25T23:51:06.755Z,61.01
2024-01-25T23:53:33.231Z,59.85
2024-01-25T23:55:59.829Z,58.05
2024-01-25T23:58:26.488Z,58.73
